Time;durP1;ratioP1;P1;durP2;ratioP2;P2;SDS_P1;SDS_P2;PMS_P1;PMS_P2;Temp;Humidity;BMP_temperature;BMP_pressure;BME280_temperature;BME280_humidity;BME280_pressure;Samples;Min_cycle;Max_cycle;Signal;HPM_P1;HPM_P2
2022/09/15 00:00:23;;;;;;;0.40;0.40;;;13.90;99.90;;;;;;5053368;28;20521;-75
2022/09/15 00:02:54;;;;;;;0.30;0.30;;;13.90;99.90;;;;;;5053259;28;20519;-75
2022/09/15 00:05:20;;;;;;;0.30;0.30;;;14.00;99.90;;;;;;5052212;28;20120;-75
2022/09/15 00:07:46;;;;;;;0.50;0.50;;;14.00;99.90;;;;;;5068421;28;20028;-74
2022/09/15 00:10:12;;;;;;;0.57;0.57;;;14.10;99.90;;;;;;5067002;28;20036;-75
2022/09/15 00:12:37;;;;;;;;;;;14.10;99.90;;;;;;5065097;28;20090;-75
2022/09/15 00:15:05;;;;;;;0.60;0.60;;;14.10;99.90;;;;;;5042196;28;20307;-77
2022/09/15 00:17:30;;;;;;;0.30;0.30;;;14.10;99.90;;;;;;5062867;28;20045;-75
2022/09/15 00:19:58;;;;;;;0.40;0.40;;;14.10;99.90;;;;;;5052194;28;20051;-74
2022/09/15 00:22:25;;;;;;;0.35;0.35;;;14.00;99.90;;;;;;5047724;28;20413;-75
2022/09/15 00:24:52;;;;;;;0.43;0.43;;;14.00;99.90;;;;;;5068545;28;20043;-76
2022/09/15 00:27:17;;;;;;;0.90;0.63;;;14.00;99.90;;;;;;5052532;28;20048;-75
2022/09/15 00:29:43;;;;;;;0.30;0.30;;;14.00;99.90;;;;;;5061193;28;20048;-74
2022/09/15 00:32:09;;;;;;;0.38;0.38;;;14.00;99.90;;;;;;5070323;28;20040;-75
2022/09/15 00:34:34;;;;;;;;;;;14.00;99.90;;;;;;5054642;28;20041;-76
2022/09/15 00:37:00;;;;;;;0.35;0.35;;;14.00;99.90;;;;;;5068394;28;20293;-75
2022/09/15 00:39:26;;;;;;;0.40;0.40;;;14.00;99.90;;;;;;5086968;28;20066;-75
2022/09/15 00:41:57;;;;;;;0.70;0.70;;;14.10;99.90;;;;;;5088909;28;20059;-76
2022/09/15 00:44:54;;;;;;;0.20;0.20;;;14.10;99.90;;;;;;5087925;28;20044;-74
2022/09/15 00:47:27;;;;;;;0.40;0.40;;;14.10;99.90;;;;;;5089129;28;20048;-76
2022/09/15 00:50:19;;;;;;;0.40;0.40;;;14.10;99.90;;;;;;5068176;28;20436;-75
2022/09/15 00:53:06;;;;;;;0.30;0.30;;;14.20;99.90;;;;;;5054173;28;20040;-76
2022/09/15 00:55:37;;;;;;;0.32;0.32;;;14.20;99.90;;;;;;5068047;28;20052;-75
2022/09/15 00:58:10;;;;;;;0.40;0.40;;;14.20;99.90;;;;;;5070015;28;20089;-75
2022/09/15 01:00:42;;;;;;;0.32;0.32;;;14.30;99.90;;;;;;5074635;28;20041;-75
2022/09/15 01:03:09;;;;;;;0.40;0.40;;;14.30;99.90;;;;;;5071206;28;20154;-76
2022/09/15 01:05:44;;;;;;;0.30;0.30;;;14.30;99.90;;;;;;5070944;28;20044;-77
2022/09/15 01:08:23;;;;;;;1.10;1.00;;;14.40;99.90;;;;;;5051013;28;20043;-76
2022/09/15 01:10:53;;;;;;;0.30;0.30;;;14.40;99.90;;;;;;5069854;28;20043;-75
2022/09/15 01:13:19;;;;;;;0.38;0.38;;;14.80;99.90;;;;;;5071821;28;20149;-77
2022/09/15 01:16:04;;;;;;;0.30;0.30;;;14.50;99.90;;;;;;5067750;28;20101;-75
2022/09/15 01:19:04;;;;;;;0.25;0.25;;;14.60;99.90;;;;;;5072623;28;20048;-76
2022/09/15 01:21:41;;;;;;;0.40;0.40;;;14.60;99.90;;;;;;5038863;28;20061;-76
2022/09/15 01:24:37;;;;;;;0.85;0.85;;;14.90;99.90;;;;;;5051465;28;20083;-77
2022/09/15 01:27:09;;;;;;;0.30;0.30;;;15.00;99.90;;;;;;5057157;28;20029;-75
2022/09/15 01:30:01;;;;;;;0.63;0.63;;;14.90;99.90;;;;;;5061043;28;20059;-76
2022/09/15 01:33:04;;;;;;;0.30;0.30;;;14.80;99.90;;;;;;5066067;28;20439;-75
2022/09/15 01:35:54;;;;;;;0.30;0.30;;;14.60;99.90;;;;;;5081097;28;20042;-76
2022/09/15 01:38:44;;;;;;;0.30;0.30;;;14.70;99.90;;;;;;5055084;28;20080;-75
2022/09/15 01:41:24;;;;;;;0.30;0.30;;;14.60;99.90;;;;;;5070852;28;20048;-75
2022/09/15 01:44:06;;;;;;;0.32;0.32;;;14.70;99.90;;;;;;5068751;28;20048;-75
2022/09/15 01:46:38;;;;;;;0.85;0.80;;;14.90;99.90;;;;;;5071498;28;20044;-74
2022/09/15 01:49:08;;;;;;;0.30;0.30;;;14.80;99.90;;;;;;5071513;28;20036;-75
2022/09/15 01:51:37;;;;;;;0.30;0.30;;;14.60;99.90;;;;;;5054709;28;20041;-76
2022/09/15 01:54:05;;;;;;;0.30;0.30;;;14.50;99.90;;;;;;5069526;28;20056;-74
2022/09/15 01:56:31;;;;;;;0.30;0.30;;;14.80;99.90;;;;;;5043809;28;20045;-75
2022/09/15 01:58:57;;;;;;;0.38;0.38;;;14.80;99.90;;;;;;5074345;28;20089;-75
2022/09/15 02:01:32;;;;;;;;;;;14.60;99.90;;;;;;5067385;28;20113;-74
2022/09/15 02:04:08;;;;;;;0.30;0.30;;;14.70;99.90;;;;;;5090637;28;20006;-76
2022/09/15 02:06:39;;;;;;;0.30;0.30;;;14.70;99.90;;;;;;5063382;28;20059;-78
2022/09/15 02:09:26;;;;;;;7.40;0.73;;;14.40;99.90;;;;;;5078604;28;20110;-76
2022/09/15 02:12:06;;;;;;;;;;;14.20;99.90;;;;;;5082718;28;20044;-76
2022/09/15 02:14:51;;;;;;;0.32;0.32;;;14.00;99.90;;;;;;5065223;28;19920;-77
2022/09/15 02:17:26;;;;;;;0.32;0.32;;;13.90;99.90;;;;;;5054804;28;20445;-76
2022/09/15 02:20:01;;;;;;;0.40;0.40;;;13.70;99.90;;;;;;5055520;28;20040;-77
2022/09/15 02:22:30;;;;;;;0.43;0.43;;;13.50;99.90;;;;;;5052683;28;20088;-78
2022/09/15 02:25:15;;;;;;;0.30;0.30;;;13.60;99.90;;;;;;5052840;28;20037;-75
2022/09/15 02:27:46;;;;;;;0.52;0.52;;;13.60;99.90;;;;;;5084754;28;20044;-76
2022/09/15 02:30:15;;;;;;;1.02;1.00;;;13.40;99.90;;;;;;5055184;28;20082;-74
2022/09/15 02:32:50;;;;;;;0.30;0.30;;;13.50;99.90;;;;;;5070927;28;20477;-76
2022/09/15 02:35:16;;;;;;;0.40;0.40;;;13.50;99.90;;;;;;5081660;28;20036;-76
2022/09/15 02:37:43;;;;;;;0.30;0.30;;;13.50;99.90;;;;;;5068828;28;20041;-78
2022/09/15 02:40:09;;;;;;;0.43;0.43;;;13.40;99.90;;;;;;5068517;28;20036;-78
2022/09/15 02:42:35;;;;;;;0.40;0.40;;;13.40;99.90;;;;;;5084807;28;20040;-77
2022/09/15 02:45:01;;;;;;;4.47;1.27;;;13.20;99.90;;;;;;5079346;28;20554;-76
2022/09/15 02:47:27;;;;;;;0.30;0.30;;;13.20;99.90;;;;;;5055371;28;20040;-78
2022/09/15 02:49:54;;;;;;;0.50;0.50;;;13.00;99.90;;;;;;5082743;28;20046;-76
2022/09/15 02:52:23;;;;;;;0.60;0.60;;;13.00;99.90;;;;;;5079147;28;20044;-78
2022/09/15 02:54:49;;;;;;;0.73;0.73;;;13.00;99.90;;;;;;5070991;28;20041;-78
2022/09/15 02:57:15;;;;;;;0.40;0.40;;;13.10;99.90;;;;;;5037002;28;20493;-79
2022/09/15 03:02:28;;;;;;;;;;;13.10;99.90;;;;;;5065857;28;20052;-79
2022/09/15 03:04:54;;;;;;;0.45;0.45;;;13.20;99.90;;;;;;5086590;28;19920;-78
2022/09/15 03:07:20;;;;;;;0.40;0.40;;;13.10;99.90;;;;;;5055681;28;20090;-77
2022/09/15 03:09:46;;;;;;;0.40;0.40;;;13.00;99.90;;;;;;5044105;28;20576;-77
2022/09/15 03:12:12;;;;;;;0.40;0.40;;;13.00;99.90;;;;;;5077911;28;20044;-79
2022/09/15 03:14:38;;;;;;;0.40;0.40;;;13.00;99.90;;;;;;5083534;28;20048;-76
2022/09/15 03:17:05;;;;;;;0.30;0.30;;;12.90;99.90;;;;;;5070898;28;20086;-76
2022/09/15 03:19:30;;;;;;;0.50;0.50;;;13.00;99.90;;;;;;5067932;28;20037;-74
2022/09/15 03:21:56;;;;;;;0.30;0.30;;;13.10;99.90;;;;;;5075312;28;20037;-76
2022/09/15 03:24:22;;;;;;;0.40;0.40;;;13.00;99.90;;;;;;5055565;28;20045;-76
2022/09/15 03:26:48;;;;;;;0.40;0.40;;;13.10;99.90;;;;;;5066840;28;20094;-75
2022/09/15 03:29:15;;;;;;;0.35;0.35;;;13.00;99.90;;;;;;5062200;28;20664;-76
2022/09/15 03:31:41;;;;;;;0.43;0.43;;;13.20;99.90;;;;;;5078921;28;20047;-76
2022/09/15 03:34:10;;;;;;;0.22;0.22;;;13.20;99.90;;;;;;5052890;28;20039;-75
2022/09/15 03:36:37;;;;;;;0.40;0.40;;;12.90;99.90;;;;;;5064762;28;20040;-78
2022/09/15 03:39:02;;;;;;;0.40;0.40;;;13.10;99.90;;;;;;5061931;28;20059;-76
2022/09/15 03:41:28;;;;;;;0.32;0.32;;;13.30;99.90;;;;;;5053082;28;20036;-76
2022/09/15 03:43:55;;;;;;;0.45;0.45;;;13.20;99.90;;;;;;5069379;28;20049;-75
2022/09/15 03:46:22;;;;;;;0.30;0.30;;;13.30;99.90;;;;;;5051896;28;20146;-77
2022/09/15 03:48:49;;;;;;;0.40;0.40;;;13.10;99.90;;;;;;5081935;28;20135;-76
2022/09/15 03:51:15;;;;;;;0.30;0.30;;;13.40;99.90;;;;;;5068749;28;20051;-77
2022/09/15 03:53:41;;;;;;;0.40;0.40;;;13.40;99.90;;;;;;5065658;28;20056;-77
2022/09/15 03:56:17;;;;;;;4.03;0.70;;;13.60;99.90;;;;;;5054255;28;20513;-75
2022/09/15 03:58:43;;;;;;;0.30;0.30;;;13.40;99.90;;;;;;5072928;28;20512;-77
2022/09/15 04:01:09;;;;;;;0.30;0.30;;;13.20;99.90;;;;;;5069442;28;20052;-75
2022/09/15 04:03:35;;;;;;;0.40;0.40;;;13.50;99.90;;;;;;5050904;28;20157;-78
2022/09/15 04:06:02;;;;;;;0.40;0.40;;;13.40;99.90;;;;;;5058724;28;20115;-75
2022/09/15 04:08:28;;;;;;;0.40;0.40;;;13.40;99.90;;;;;;5072509;28;20445;-77
2022/09/15 04:10:53;;;;;;;0.30;0.30;;;13.40;99.90;;;;;;5064371;28;20127;-77
2022/09/15 04:13:20;;;;;;;0.50;0.50;;;13.50;99.90;;;;;;5073104;28;20388;-78
2022/09/15 04:15:47;;;;;;;0.28;0.28;;;13.50;99.90;;;;;;5073176;28;20118;-75
2022/09/15 04:18:13;;;;;;;0.82;0.82;;;13.50;99.90;;;;;;5030559;28;20059;-77
2022/09/15 04:20:39;;;;;;;0.30;0.30;;;13.70;99.90;;;;;;5030868;28;20474;-79
2022/09/15 04:23:04;;;;;;;0.50;0.50;;;13.30;99.90;;;;;;5069522;28;20056;-76
2022/09/15 04:25:30;;;;;;;0.40;0.40;;;13.30;99.90;;;;;;5051663;28;20114;-76
2022/09/15 04:27:56;;;;;;;0.40;0.40;;;13.40;99.90;;;;;;5069157;28;20045;-75
2022/09/15 04:30:24;;;;;;;0.47;0.47;;;13.30;99.90;;;;;;5066005;28;20090;-75
2022/09/15 04:32:52;;;;;;;1.02;1.02;;;13.30;99.90;;;;;;5068004;28;20036;-75
2022/09/15 04:35:20;;;;;;;0.40;0.40;;;13.40;99.90;;;;;;5063143;28;20044;-76
2022/09/15 04:37:46;;;;;;;0.40;0.40;;;13.00;99.90;;;;;;5072890;28;20392;-75
2022/09/15 04:40:13;;;;;;;1.50;1.50;;;13.40;99.90;;;;;;5067159;28;20040;-76
2022/09/15 04:42:39;;;;;;;0.40;0.40;;;13.00;99.90;;;;;;5047500;28;20041;-75
2022/09/15 04:45:06;;;;;;;0.45;0.45;;;12.90;99.90;;;;;;5071757;28;20048;-78
2022/09/15 04:47:32;;;;;;;0.40;0.40;;;13.10;99.90;;;;;;5093254;28;20080;-79
2022/09/15 04:49:58;;;;;;;0.40;0.40;;;13.00;99.90;;;;;;5083551;28;20068;-78
2022/09/15 04:52:23;;;;;;;;;;;13.10;99.90;;;;;;5081003;28;20394;-77
2022/09/15 04:54:49;;;;;;;0.50;0.47;;;13.30;99.90;;;;;;5059666;28;19916;-76
2022/09/15 04:57:15;;;;;;;0.30;0.30;;;13.20;99.90;;;;;;5072576;28;20070;-77
2022/09/15 04:59:49;;;;;;;0.20;0.20;;;13.40;99.90;;;;;;5056040;28;20051;-77
2022/09/15 05:02:16;;;;;;;0.40;0.40;;;13.30;99.90;;;;;;5040527;28;20041;-75
2022/09/15 05:04:43;;;;;;;0.50;0.50;;;13.20;99.90;;;;;;5060545;28;20041;-76
2022/09/15 05:07:08;;;;;;;0.40;0.40;;;13.10;99.90;;;;;;5025048;28;20036;-76
2022/09/15 05:09:34;;;;;;;0.38;0.38;;;12.90;99.90;;;;;;5067826;28;20377;-75
2022/09/15 05:12:00;;;;;;;;;;;12.90;99.90;;;;;;5072878;28;20044;-76
2022/09/15 05:14:26;;;;;;;0.32;0.32;;;12.80;99.90;;;;;;5068311;28;19968;-78
2022/09/15 05:16:52;;;;;;;0.35;0.35;;;12.70;99.90;;;;;;5063566;28;20136;-77
2022/09/15 05:19:18;;;;;;;0.40;0.40;;;12.90;99.90;;;;;;5055128;28;20486;-77
2022/09/15 05:21:44;;;;;;;0.40;0.40;;;12.60;99.90;;;;;;5090693;28;20047;-77
2022/09/15 05:24:09;;;;;;;0.32;0.32;;;12.50;99.90;;;;;;5077673;28;20494;-75
2022/09/15 05:26:35;;;;;;;0.38;0.38;;;12.20;99.90;;;;;;5066106;28;20109;-76
2022/09/15 05:29:01;;;;;;;0.40;0.40;;;12.30;99.90;;;;;;5069915;28;20048;-75
2022/09/15 05:31:32;;;;;;;0.30;0.30;;;12.30;99.90;;;;;;5070423;28;20070;-75
2022/09/15 05:34:01;;;;;;;0.40;0.40;;;12.10;99.90;;;;;;5086744;28;20051;-76
2022/09/15 05:36:33;;;;;;;0.47;0.47;;;12.20;99.90;;;;;;5082706;28;20048;-76
2022/09/15 05:39:00;;;;;;;0.40;0.40;;;12.20;99.90;;;;;;5050237;28;20489;-76
2022/09/15 05:41:27;;;;;;;0.30;0.30;;;12.60;99.90;;;;;;5040282;28;20076;-76
2022/09/15 05:43:56;;;;;;;0.40;0.40;;;12.30;99.90;;;;;;5045042;28;20178;-75
2022/09/15 05:46:24;;;;;;;0.32;0.32;;;12.40;99.90;;;;;;5059359;28;20435;-78
2022/09/15 05:48:52;;;;;;;0.40;0.40;;;13.00;99.90;;;;;;5075599;28;20036;-78
2022/09/15 05:51:19;;;;;;;0.35;0.35;;;12.90;99.90;;;;;;5071371;28;20048;-75
2022/09/15 05:53:45;;;;;;;0.50;0.50;;;13.10;99.90;;;;;;5039764;28;20558;-77
2022/09/15 05:56:12;;;;;;;;;;;13.00;99.90;;;;;;5072621;28;20098;-78
2022/09/15 05:58:39;;;;;;;0.40;0.40;;;13.30;99.90;;;;;;5069811;28;19920;-76
2022/09/15 06:01:19;;;;;;;0.40;0.40;;;13.30;99.90;;;;;;5075196;28;20078;-77
2022/09/15 06:03:46;;;;;;;0.40;0.40;;;13.30;99.90;;;;;;5068160;28;20116;-77
2022/09/15 06:06:20;;;;;;;0.40;0.40;;;13.60;99.90;;;;;;5072359;28;20157;-79
2022/09/15 06:08:50;;;;;;;0.40;0.40;;;13.80;99.90;;;;;;5078106;28;20131;-77
2022/09/15 06:11:22;;;;;;;0.38;0.38;;;13.60;99.90;;;;;;5071142;28;20448;-77
2022/09/15 06:13:49;;;;;;;0.40;0.40;;;13.70;99.90;;;;;;5054297;28;20485;-78
2022/09/15 06:16:22;;;;;;;0.30;0.30;;;14.10;99.90;;;;;;5031578;28;20342;-77
2022/09/15 06:18:58;;;;;;;0.65;0.65;;;14.10;99.90;;;;;;5064868;28;20047;-77
2022/09/15 06:21:25;;;;;;;0.25;0.25;;;13.90;99.90;;;;;;5038209;28;20095;-76
2022/09/15 06:23:53;;;;;;;0.43;0.43;;;14.30;99.90;;;;;;5065860;28;20057;-75
2022/09/15 06:26:19;;;;;;;0.40;0.40;;;14.30;99.90;;;;;;5053517;28;20142;-81
2022/09/15 06:28:50;;;;;;;0.22;0.22;;;14.30;99.90;;;;;;5069852;28;20436;-76
2022/09/15 06:31:16;;;;;;;0.40;0.40;;;14.50;99.90;;;;;;5069111;28;20094;-73
2022/09/15 06:33:42;;;;;;;;;;;14.20;99.90;;;;;;5034538;28;20498;-76
2022/09/15 06:36:12;;;;;;;0.40;0.40;;;14.40;99.90;;;;;;5067329;28;19978;-76
2022/09/15 06:38:43;;;;;;;0.68;0.68;;;14.60;99.90;;;;;;5055664;28;20102;-77
2022/09/15 06:41:10;;;;;;;2.22;1.35;;;14.70;99.90;;;;;;5066267;28;20106;-75
2022/09/15 06:43:38;;;;;;;0.30;0.30;;;14.60;99.90;;;;;;5062333;28;20394;-79
2022/09/15 06:46:12;;;;;;;0.40;0.40;;;14.50;99.90;;;;;;5067541;28;20405;-76
2022/09/15 06:48:39;;;;;;;0.30;0.30;;;14.60;99.90;;;;;;5024359;28;20041;-76
2022/09/15 06:51:06;;;;;;;0.40;0.40;;;14.50;99.90;;;;;;5070271;28;20049;-76
2022/09/15 06:53:34;;;;;;;4.18;0.52;;;14.70;99.90;;;;;;5065200;28;20055;-76
2022/09/15 06:56:09;;;;;;;1.05;1.00;;;14.70;99.90;;;;;;5066020;28;20044;-74
2022/09/15 06:58:37;;;;;;;0.40;0.40;;;14.50;99.90;;;;;;5074180;28;20029;-74
2022/09/15 07:01:09;;;;;;;0.28;0.28;;;14.50;99.90;;;;;;5055044;28;20048;-76
2022/09/15 07:03:41;;;;;;;0.52;0.52;;;14.60;99.90;;;;;;5066850;28;20510;-75
2022/09/15 07:06:08;;;;;;;0.85;0.85;;;14.90;99.90;;;;;;5047943;28;20436;-78
2022/09/15 07:08:34;;;;;;;0.40;0.40;;;14.60;99.90;;;;;;5050833;28;20044;-75
2022/09/15 07:11:00;;;;;;;0.40;0.40;;;14.60;99.90;;;;;;5069260;28;20094;-77
2022/09/15 07:13:26;;;;;;;;;;;15.00;99.90;;;;;;5056062;28;20485;-76
2022/09/15 07:15:53;;;;;;;0.20;0.20;;;15.10;99.90;;;;;;5052965;28;19924;-74
2022/09/15 07:18:23;;;;;;;0.20;0.20;;;15.30;99.90;;;;;;5069033;28;20068;-77
2022/09/15 07:21:08;;;;;;;0.22;0.22;;;15.40;99.90;;;;;;5070506;28;20094;-75
2022/09/15 07:23:34;;;;;;;0.30;0.30;;;15.50;99.90;;;;;;5051273;28;20080;-77
2022/09/15 07:26:30;;;;;;;0.22;0.22;;;15.60;99.90;;;;;;5063209;28;20044;-75
2022/09/15 07:29:00;;;;;;;9.75;1.02;;;15.60;99.90;;;;;;5038174;28;20037;-76
2022/09/15 07:31:28;;;;;;;0.30;0.30;;;15.60;99.90;;;;;;5077136;28;20368;-74
2022/09/15 07:33:54;;;;;;;0.30;0.30;;;15.60;99.90;;;;;;5062151;28;20048;-77
2022/09/15 07:36:20;;;;;;;;;;;15.60;99.90;;;;;;5071560;28;20143;-76
2022/09/15 07:38:48;;;;;;;0.30;0.30;;;15.50;99.90;;;;;;5062243;28;20395;-75
2022/09/15 07:41:23;;;;;;;0.50;0.50;;;15.50;99.90;;;;;;5057804;28;20045;-76
2022/09/15 07:43:51;;;;;;;0.20;0.20;;;15.50;99.90;;;;;;5062171;28;20056;-77
2022/09/15 07:46:18;;;;;;;0.40;0.40;;;15.40;99.90;;;;;;5071649;28;20046;-78
2022/09/15 07:48:49;;;;;;;0.30;0.30;;;15.40;99.90;;;;;;5068558;28;20055;-77
2022/09/15 07:51:17;;;;;;;0.22;0.22;;;15.30;99.90;;;;;;5069689;28;20055;-77
2022/09/15 07:53:44;;;;;;;0.30;0.30;;;15.10;99.90;;;;;;5050656;28;20040;-77
2022/09/15 07:56:10;;;;;;;0.82;0.82;;;15.00;99.90;;;;;;5060861;28;20045;-78
2022/09/15 07:58:37;;;;;;;;;;;14.90;99.90;;;;;;5068637;28;20072;-78
2022/09/15 08:01:10;;;;;;;0.30;0.30;;;14.90;99.90;;;;;;5066700;28;19916;-78
2022/09/15 08:03:41;;;;;;;0.25;0.25;;;15.00;99.90;;;;;;5072265;28;20052;-78
2022/09/15 08:06:08;;;;;;;0.30;0.30;;;15.10;99.90;;;;;;5055003;28;20040;-78
2022/09/15 08:08:34;;;;;;;0.55;0.55;;;15.20;99.90;;;;;;5051679;28;20040;-79
2022/09/15 08:11:08;;;;;;;0.38;0.38;;;15.30;99.90;;;;;;5070100;28;20079;-77
2022/09/15 08:13:34;;;;;;;0.30;0.30;;;15.40;99.90;;;;;;5049652;28;20223;-78
2022/09/15 08:16:08;;;;;;;0.20;0.20;;;15.50;99.90;;;;;;5089178;28;20094;-77
2022/09/15 08:18:35;;;;;;;0.50;0.50;;;15.60;99.90;;;;;;5060070;28;20604;-78
2022/09/15 08:21:08;;;;;;;0.30;0.30;;;15.80;99.90;;;;;;5059481;28;20044;-78
2022/09/15 08:23:34;;;;;;;0.30;0.30;;;16.00;99.90;;;;;;5066836;28;20095;-77
2022/09/15 08:26:00;;;;;;;0.30;0.30;;;16.10;99.90;;;;;;5070547;28;20079;-77
2022/09/15 08:28:27;;;;;;;0.30;0.30;;;16.30;99.90;;;;;;5056453;28;20041;-77
2022/09/15 08:31:04;;;;;;;0.40;0.40;;;16.40;99.90;;;;;;5070990;28;20045;-77
2022/09/15 08:33:32;;;;;;;1.92;1.75;;;16.50;99.90;;;;;;5069056;28;20518;-78
2022/09/15 08:36:04;;;;;;;0.25;0.25;;;16.70;99.90;;;;;;5066522;28;20052;-77
2022/09/15 08:38:30;;;;;;;0.30;0.30;;;16.80;99.90;;;;;;5053469;28;20048;-78
2022/09/15 08:41:03;;;;;;;0.30;0.30;;;16.80;99.90;;;;;;5065434;28;20051;-78
2022/09/15 08:43:35;;;;;;;0.28;0.28;;;16.70;99.90;;;;;;5070240;28;20393;-76
2022/09/15 08:46:08;;;;;;;0.30;0.30;;;16.70;99.90;;;;;;5069419;28;20044;-77
2022/09/15 08:48:47;;;;;;;0.30;0.30;;;16.60;99.90;;;;;;5064581;28;20426;-78
2022/09/15 08:51:25;;;;;;;0.20;0.20;;;16.60;99.90;;;;;;5071678;28;20554;-77
2022/09/15 08:54:01;;;;;;;0.22;0.22;;;16.90;99.90;;;;;;5063835;28;20094;-77
2022/09/15 08:56:28;;;;;;;0.50;0.50;;;17.30;99.90;;;;;;5062215;28;20040;-77
2022/09/15 08:58:54;;;;;;;0.10;0.10;;;17.60;99.90;;;;;;5069098;28;20492;-78
2022/09/15 09:01:38;;;;;;;0.20;0.20;;;17.50;99.90;;;;;;5073501;28;20070;-78
2022/09/15 09:04:35;;;;;;;0.20;0.20;;;17.30;99.90;;;;;;5062444;28;20060;-79
2022/09/15 09:07:48;;;;;;;0.50;0.50;;;16.80;99.90;;;;;;5068520;28;20080;-79
2022/09/15 09:10:35;;;;;;;0.63;0.63;;;15.80;99.90;;;;;;5037848;28;20080;-79
2022/09/15 09:13:00;;;;;;;0.50;0.50;;;15.30;99.90;;;;;;5074469;28;20074;-80
2022/09/15 09:15:49;;;;;;;2.42;1.02;;;14.90;99.90;;;;;;5069240;28;20094;-80
2022/09/15 09:18:22;;;;;;;0.30;0.30;;;14.80;99.90;;;;;;5068216;28;20040;-79
2022/09/15 09:20:52;;;;;;;0.52;0.52;;;14.80;99.90;;;;;;5072071;28;20135;-79
2022/09/15 09:23:23;;;;;;;0.30;0.30;;;14.80;99.90;;;;;;5073142;28;20375;-78
2022/09/15 09:25:51;;;;;;;0.50;0.50;;;14.80;99.90;;;;;;5072085;28;20040;-80
2022/09/15 09:28:25;;;;;;;0.30;0.30;;;14.90;99.90;;;;;;5050362;28;20390;-80
2022/09/15 09:30:51;;;;;;;0.40;0.40;;;14.80;99.90;;;;;;5061748;28;20047;-79
2022/09/15 09:33:35;;;;;;;;;;;14.80;99.90;;;;;;5048222;28;20129;-78
2022/09/15 09:36:03;;;;;;;0.20;0.20;;;14.70;99.90;;;;;;5066737;28;19916;-78
2022/09/15 09:38:35;;;;;;;0.60;0.60;;;14.70;99.90;;;;;;5070235;28;20101;-79
2022/09/15 09:41:03;;;;;;;0.50;0.50;;;14.70;99.90;;;;;;5059388;28;20090;-80
2022/09/15 09:43:30;;;;;;;0.28;0.28;;;14.80;99.90;;;;;;5062244;28;20045;-79
2022/09/15 09:45:55;;;;;;;0.35;0.35;;;14.90;99.90;;;;;;5066181;28;20032;-80
2022/09/15 09:48:23;;;;;;;;;;;15.00;99.90;;;;;;5065144;28;20482;-80
2022/09/15 09:50:49;;;;;;;0.30;0.30;;;15.10;99.90;;;;;;5065171;28;19921;-80
2022/09/15 09:53:32;;;;;;;0.30;0.30;;;15.10;99.90;;;;;;5071427;28;20431;-78
2022/09/15 09:56:24;;;;;;;0.30;0.30;;;15.20;99.90;;;;;;5063827;28;20044;-78
2022/09/15 09:58:51;;;;;;;0.30;0.30;;;15.30;99.90;;;;;;5063991;28;20033;-78
2022/09/15 10:01:27;;;;;;;0.30;0.30;;;15.30;99.90;;;;;;5050859;28;20115;-79
2022/09/15 10:04:18;;;;;;;0.40;0.40;;;15.20;99.90;;;;;;5059972;28;20068;-78
2022/09/15 10:06:44;;;;;;;0.43;0.43;;;15.30;99.90;;;;;;5063250;28;20049;-78
2022/09/15 10:09:17;;;;;;;2.10;2.05;;;15.40;99.90;;;;;;5061800;28;20513;-79
2022/09/15 10:11:46;;;;;;;0.30;0.30;;;15.70;99.90;;;;;;5061105;28;20094;-79
2022/09/15 10:14:30;;;;;;;0.50;0.50;;;15.80;99.90;;;;;;5060400;28;20040;-79
2022/09/15 10:17:12;;;;;;;0.35;0.35;;;15.90;99.90;;;;;;5065223;28;20043;-78
2022/09/15 10:19:54;;;;;;;0.30;0.30;;;16.00;99.90;;;;;;5070122;28;20044;-79
2022/09/15 10:22:31;;;;;;;0.30;0.30;;;16.10;99.90;;;;;;5061417;28;20409;-78
2022/09/15 10:25:21;;;;;;;0.40;0.40;;;16.10;99.90;;;;;;5054902;28;20230;-77
2022/09/15 10:28:13;;;;;;;0.50;0.50;;;15.90;99.90;;;;;;5071510;28;20032;-78
2022/09/15 10:30:54;;;;;;;0.38;0.38;;;15.70;99.90;;;;;;5071568;28;20056;-78
2022/09/15 10:33:27;;;;;;;0.30;0.30;;;15.60;99.90;;;;;;5038183;28;20047;-78
2022/09/15 10:36:00;;;;;;;0.30;0.30;;;15.40;99.90;;;;;;5048332;28;20052;-78
2022/09/15 10:38:40;;;;;;;0.20;0.20;;;15.10;99.90;;;;;;5061420;28;20051;-78
2022/09/15 10:41:28;;;;;;;0.30;0.30;;;15.00;99.90;;;;;;5031083;28;20173;-78
2022/09/15 10:44:21;;;;;;;0.25;0.25;;;15.00;99.90;;;;;;5045034;28;20661;-78
2022/09/15 10:47:06;;;;;;;;;;;15.00;99.90;;;;;;5057877;28;20111;-79
2022/09/15 10:49:42;;;;;;;0.73;0.73;;;15.20;99.90;;;;;;5063296;28;19924;-80
2022/09/15 10:52:27;;;;;;;;;;;15.30;99.90;;;;;;5063875;28;20049;-78
2022/09/15 10:54:59;;;;;;;0.40;0.40;;;15.40;99.90;;;;;;5071550;28;19919;-77
2022/09/15 10:57:55;;;;;;;0.40;0.40;;;15.60;99.90;;;;;;5056185;28;20048;-77
2022/09/15 11:00:27;;;;;;;1.45;1.45;;;15.70;99.90;;;;;;5045686;28;20051;-78
2022/09/15 11:03:26;;;;;;;0.43;0.43;;;15.90;99.90;;;;;;5068682;28;20050;-78
2022/09/15 11:06:12;;;;;;;0.68;0.40;;;16.10;99.90;;;;;;5054365;28;20051;-79
2022/09/15 11:08:40;;;;;;;1.02;1.00;;;16.20;99.90;;;;;;5050208;28;20052;-78
2022/09/15 11:11:33;;;;;;;0.30;0.30;;;16.20;99.90;;;;;;5052847;28;20359;-78
2022/09/15 11:14:20;;;;;;;0.55;0.45;;;16.20;99.90;;;;;;5045617;28;20050;-78
2022/09/15 11:17:32;;;;;;;0.30;0.30;;;16.40;99.90;;;;;;5067469;28;20593;-77
2022/09/15 11:20:42;;;;;;;0.30;0.30;;;16.50;99.90;;;;;;5055898;28;20049;-79
2022/09/15 11:23:31;;;;;;;0.25;0.25;;;16.60;99.90;;;;;;5070121;28;20055;-78
2022/09/15 11:26:12;;;;;;;0.65;0.65;;;16.70;99.90;;;;;;5067552;28;20046;-80
2022/09/15 11:28:55;;;;;;;0.28;0.28;;;16.80;99.90;;;;;;5069653;28;20043;-79
2022/09/15 11:31:35;;;;;;;0.50;0.50;;;17.00;99.90;;;;;;5069683;28;20478;-78
2022/09/15 11:34:17;;;;;;;0.20;0.20;;;17.00;99.90;;;;;;5052709;28;20044;-80
2022/09/15 11:36:52;;;;;;;0.30;0.30;;;17.10;99.90;;;;;;5070177;28;20047;-80
2022/09/15 11:39:32;;;;;;;0.20;0.20;;;17.20;99.90;;;;;;5055432;28;20041;-80
2022/09/15 11:42:05;;;;;;;0.20;0.20;;;17.40;99.90;;;;;;5068853;28;20113;-80
2022/09/15 11:44:37;;;;;;;0.30;0.30;;;17.60;99.90;;;;;;5048067;28;20044;-79
2022/09/15 11:47:24;;;;;;;0.20;0.20;;;17.80;99.90;;;;;;5069063;28;20044;-80
2022/09/15 11:50:19;;;;;;;0.20;0.20;;;17.80;99.90;;;;;;5069151;28;20032;-80
2022/09/15 11:52:53;;;;;;;0.30;0.30;;;17.60;99.90;;;;;;5054052;28;20103;-79
2022/09/15 11:55:57;;;;;;;0.40;0.40;;;17.30;99.90;;;;;;5050199;28;20093;-80
2022/09/15 11:58:28;;;;;;;0.30;0.30;;;17.30;99.90;;;;;;5043403;28;20542;-80
2022/09/15 12:01:03;;;;;;;0.20;0.20;;;17.50;99.90;;;;;;5067987;28;20036;-80
2022/09/15 12:03:43;;;;;;;0.25;0.25;;;17.60;99.90;;;;;;5092320;28;20059;-80
2022/09/15 12:06:36;;;;;;;0.25;0.25;;;17.60;99.90;;;;;;5047967;28;20375;-79
2022/09/15 12:09:05;;;;;;;0.30;0.30;;;17.70;99.90;;;;;;5052360;28;20044;-80
2022/09/15 12:11:35;;;;;;;0.10;0.10;;;17.80;99.90;;;;;;5064150;28;20040;-79
2022/09/15 12:14:04;;;;;;;0.20;0.20;;;18.00;99.90;;;;;;5057443;28;20075;-79
2022/09/15 12:16:32;;;;;;;0.30;0.30;;;18.30;99.90;;;;;;5066051;28;20366;-79
2022/09/15 12:19:30;;;;;;;0.40;0.40;;;18.50;99.90;;;;;;5048378;28;20040;-83
2022/09/15 12:22:28;;;;;;;0.38;0.38;;;18.40;99.90;;;;;;5039722;28;20087;-80
2022/09/15 12:25:03;;;;;;;0.30;0.30;;;18.20;99.90;;;;;;5047336;28;20108;-79
2022/09/15 12:27:29;;;;;;;0.20;0.20;;;18.00;99.90;;;;;;5047978;28;20426;-80
2022/09/15 12:29:59;;;;;;;;;;;18.00;99.90;;;;;;5086279;28;20123;-80
2022/09/15 12:32:28;;;;;;;0.30;0.30;;;18.00;99.90;;;;;;5065351;28;19925;-80
2022/09/15 12:34:55;;;;;;;0.30;0.30;;;18.10;99.90;;;;;;5059633;28;20102;-79
2022/09/15 12:37:21;;;;;;;0.25;0.25;;;18.00;99.90;;;;;;5064972;28;20045;-80
2022/09/15 12:39:47;;;;;;;0.20;0.20;;;17.90;99.90;;;;;;5074984;28;20101;-79
2022/09/15 12:42:19;;;;;;;0.30;0.30;;;18.00;99.90;;;;;;5056878;28;20655;-80
2022/09/15 12:45:20;;;;;;;0.30;0.30;;;18.00;99.90;;;;;;5069641;28;20056;-79
2022/09/15 12:48:11;;;;;;;0.20;0.20;;;18.40;99.90;;;;;;5047847;28;20057;-79
2022/09/15 12:51:09;;;;;;;0.20;0.20;;;18.70;99.90;;;;;;5065043;28;20041;-79
2022/09/15 12:54:12;;;;;;;0.28;0.28;;;18.70;99.90;;;;;;5079199;28;20037;-80
2022/09/15 12:56:38;;;;;;;0.25;0.25;;;18.60;99.90;;;;;;5068929;28;20052;-79
2022/09/15 12:59:10;;;;;;;;;;;18.20;99.90;;;;;;5066701;28;20495;-81
2022/09/15 13:01:47;;;;;;;0.65;0.47;;;17.90;99.90;;;;;;5088249;28;19923;-80
2022/09/15 13:04:42;;;;;;;0.20;0.20;;;17.40;99.90;;;;;;5049873;28;20045;-80
2022/09/15 13:07:14;;;;;;;0.32;0.32;;;17.10;99.90;;;;;;5070613;28;20124;-79
2022/09/15 13:10:14;;;;;;;0.20;0.20;;;17.00;99.90;;;;;;5053090;28;20040;-80
2022/09/15 13:12:47;;;;;;;0.32;0.32;;;16.90;99.90;;;;;;5094086;28;20036;-79
2022/09/15 13:15:15;;;;;;;1.17;1.08;;;17.00;99.90;;;;;;5073059;28;20086;-80
2022/09/15 13:17:45;;;;;;;0.30;0.30;;;17.00;99.90;;;;;;5053621;28;20041;-81
2022/09/15 13:20:24;;;;;;;0.30;0.30;;;17.20;99.90;;;;;;5078921;28;20040;-81
2022/09/15 13:22:52;;;;;;;0.40;0.30;;;17.30;99.90;;;;;;5072458;28;20040;-81